Time;durP1;ratioP1;P1;durP2;ratioP2;P2;SDS_P1;SDS_P2;PMS_P1;PMS_P2;Temp;Humidity;BMP_temperature;BMP_pressure;BME280_temperature;BME280_humidity;BME280_pressure;Samples;Min_cycle;Max_cycle;Signal;HPM_P1;HPM_P2
2022/11/23 00:01:28;;;;;;;5.03;2.40;;;;;;;;;;6309338;22;20493;-70
2022/11/23 00:03:55;;;;;;;9.93;2.73;;;;;;;;;;6308929;22;20153;-70
2022/11/23 00:06:21;;;;;;;5.80;2.40;;;;;;;;;;6308876;22;20155;-71
2022/11/23 00:08:48;;;;;;;6.77;2.53;;;;;;;;;;6309031;22;20208;-70
2022/11/23 00:11:14;;;;;;;7.80;3.07;;;;;;;;;;6281361;22;20167;-70
2022/11/23 00:13:40;;;;;;;6.67;2.50;;;;;;;;;;6308526;22;20149;-74
2022/11/23 00:16:07;;;;;;;7.13;2.40;;;;;;;;;;6308553;22;20149;-71
2022/11/23 00:18:33;;;;;;;10.60;2.83;;;;;;;;;;6308618;22;20195;-71
2022/11/23 00:20:59;;;;;;;9.23;2.77;;;;;;;;;;6281097;22;20218;-71
2022/11/23 00:23:25;;;;;;;5.07;2.40;;;;;;;;;;6308506;22;20211;-70
2022/11/23 00:25:50;;;;;;;5.87;2.53;;;;;;;;;;6309048;22;20153;-70
2022/11/23 00:28:16;;;;;;;10.87;3.00;;;;;;;;;;6280900;22;20184;-70
2022/11/23 00:30:48;;;;;;;7.17;2.60;;;;;;;;;;6308844;22;20196;-70
2022/11/23 00:33:13;;;;;;;6.53;2.60;;;;;;;;;;6308485;22;20514;-69
2022/11/23 00:35:39;;;;;;;6.33;2.90;;;;;;;;;;6308917;22;20144;-71
2022/11/23 00:38:05;;;;;;;10.17;3.13;;;;;;;;;;6308665;22;20199;-70
2022/11/23 00:40:31;;;;;;;4.43;2.40;;;;;;;;;;6308535;22;20152;-70
2022/11/23 00:42:57;;;;;;;5.90;2.50;;;;;;;;;;6308721;22;20148;-70
2022/11/23 00:45:23;;;;;;;7.93;3.13;;;;;;;;;;6308291;22;20172;-70
2022/11/23 00:47:49;;;;;;;8.40;3.40;;;;;;;;;;6308030;22;20184;-70
2022/11/23 00:50:15;;;;;;;7.97;2.83;;;;;;;;;;6308224;22;20230;-70
2022/11/23 00:52:41;;;;;;;6.83;2.47;;;;;;;;;;6308083;22;20602;-69
2022/11/23 00:55:07;;;;;;;6.43;2.60;;;;;;;;;;6308112;22;20151;-68
2022/11/23 00:57:33;;;;;;;6.63;2.47;;;;;;;;;;6308456;22;20176;-71
2022/11/23 01:00:00;;;;;;;5.30;2.10;;;;;;;;;;6308146;22;20160;-68
2022/11/23 01:02:26;;;;;;;7.00;2.53;;;;;;;;;;6307943;22;20218;-71
2022/11/23 01:04:52;;;;;;;8.40;2.93;;;;;;;;;;6308009;22;20148;-71
2022/11/23 01:07:18;;;;;;;10.87;3.10;;;;;;;;;;6280608;22;20176;-70
2022/11/23 01:09:44;;;;;;;10.57;2.37;;;;;;;;;;6308342;22;20274;-70
2022/11/23 01:12:10;;;;;;;8.97;2.67;;;;;;;;;;6308672;22;20145;-70
2022/11/23 01:14:36;;;;;;;8.03;2.43;;;;;;;;;;6280625;22;20172;-70
2022/11/23 01:17:02;;;;;;;10.20;3.00;;;;;;;;;;6307858;22;20172;-69
2022/11/23 01:19:29;;;;;;;7.90;2.60;;;;;;;;;;6308470;22;20174;-70
2022/11/23 01:21:55;;;;;;;11.03;3.30;;;;;;;;;;6308235;22;20153;-70
2022/11/23 01:24:22;;;;;;;11.53;3.70;;;;;;;;;;6307827;22;20184;-69
2022/11/23 01:26:51;;;;;;;7.20;3.30;;;;;;;;;;6280396;22;20161;-70
2022/11/23 01:29:17;;;;;;;11.67;3.43;;;;;;;;;;6307854;22;20201;-70
2022/11/23 01:31:43;;;;;;;9.97;3.70;;;;;;;;;;6308220;22;20144;-67
2022/11/23 01:34:11;;;;;;;9.73;3.67;;;;;;;;;;6308003;22;20591;-71
2022/11/23 01:36:37;;;;;;;7.83;3.90;;;;;;;;;;6307997;22;20685;-71
2022/11/23 01:39:04;;;;;;;8.87;4.20;;;;;;;;;;6308041;22;20188;-71
2022/11/23 01:41:37;;;;;;;6.07;3.43;;;;;;;;;;6307889;22;20152;-70
2022/11/23 01:44:23;;;;;;;10.03;3.67;;;;;;;;;;6307767;22;20148;-70
2022/11/23 01:46:48;;;;;;;12.10;3.73;;;;;;;;;;6280289;22;20155;-70
2022/11/23 01:49:14;;;;;;;9.27;3.47;;;;;;;;;;6307605;22;20175;-70
2022/11/23 01:51:43;;;;;;;9.63;3.00;;;;;;;;;;6280618;22;20183;-70
2022/11/23 01:54:24;;;;;;;7.87;3.13;;;;;;;;;;6308297;22;20179;-70
2022/11/23 01:56:53;;;;;;;8.10;2.57;;;;;;;;;;6307750;22;20195;-71
2022/11/23 01:59:21;;;;;;;10.70;3.10;;;;;;;;;;6307728;22;20148;-69
2022/11/23 02:01:47;;;;;;;11.10;3.00;;;;;;;;;;6308504;22;20203;-69
2022/11/23 02:04:17;;;;;;;5.77;2.37;;;;;;;;;;6307897;22;20148;-70
2022/11/23 02:06:44;;;;;;;8.87;2.57;;;;;;;;;;6307634;22;20222;-71
2022/11/23 02:09:10;;;;;;;6.77;2.20;;;;;;;;;;6309006;22;20171;-69
2022/11/23 02:11:36;;;;;;;7.67;2.17;;;;;;;;;;6310189;22;20213;-70
2022/11/23 02:14:02;;;;;;;9.70;2.60;;;;;;;;;;6310631;22;20148;-70
2022/11/23 02:16:28;;;;;;;8.27;2.70;;;;;;;;;;6310131;22;20240;-70
2022/11/23 02:18:54;;;;;;;7.03;2.23;;;;;;;;;;6282320;22;20176;-69
2022/11/23 02:21:21;;;;;;;10.30;2.80;;;;;;;;;;6310433;22;20152;-70
2022/11/23 02:23:52;;;;;;;7.70;2.60;;;;;;;;;;6282582;22;20180;-68
2022/11/23 02:26:21;;;;;;;8.87;2.90;;;;;;;;;;6309987;22;20136;-70
2022/11/23 02:28:59;;;;;;;12.47;2.80;;;;;;;;;;6309642;22;20184;-70
2022/11/23 02:31:25;;;;;;;9.27;2.30;;;;;;;;;;6310337;22;20207;-70
2022/11/23 02:33:51;;;;;;;7.27;2.70;;;;;;;;;;6282086;22;20214;-70
2022/11/23 02:36:37;;;;;;;7.10;2.20;;;;;;;;;;6309866;22;20156;-70
2022/11/23 02:39:11;;;;;;;7.60;2.73;;;;;;;;;;6282070;22;20205;-69
2022/11/23 02:41:39;;;;;;;5.50;2.43;;;;;;;;;;6309618;22;20201;-71
2022/11/23 02:44:08;;;;;;;13.00;2.73;;;;;;;;;;6309539;22;20152;-70
2022/11/23 02:46:34;;;;;;;9.63;3.00;;;;;;;;;;6309111;22;20175;-71
2022/11/23 02:49:00;;;;;;;8.60;2.60;;;;;;;;;;6309258;22;20184;-70
2022/11/23 02:51:26;;;;;;;10.00;3.33;;;;;;;;;;6309329;22;20220;-70
2022/11/23 02:53:52;;;;;;;11.03;3.30;;;;;;;;;;6310002;22;20492;-71
2022/11/23 02:56:18;;;;;;;8.97;2.93;;;;;;;;;;6281907;22;20626;-71
2022/11/23 02:58:44;;;;;;;8.77;3.07;;;;;;;;;;6281890;22;20260;-71
2022/11/23 03:01:10;;;;;;;6.70;3.00;;;;;;;;;;6281975;22;20190;-71
2022/11/23 03:03:36;;;;;;;7.50;3.63;;;;;;;;;;6309647;22;20149;-71
2022/11/23 03:06:02;;;;;;;8.23;3.10;;;;;;;;;;6310372;22;20163;-71
2022/11/23 03:08:27;;;;;;;8.53;3.47;;;;;;;;;;6281668;22;20226;-73
2022/11/23 03:10:53;;;;;;;9.33;3.70;;;;;;;;;;6309351;22;20145;-70
2022/11/23 03:13:19;;;;;;;9.33;3.60;;;;;;;;;;6281979;22;20153;-70
2022/11/23 03:15:45;;;;;;;7.47;3.33;;;;;;;;;;6309275;22;20149;-71
2022/11/23 03:18:11;;;;;;;10.00;3.50;;;;;;;;;;6309159;22;20168;-71
2022/11/23 03:20:37;;;;;;;18.43;4.70;;;;;;;;;;6309120;22;20194;-73
2022/11/23 03:23:03;;;;;;;11.23;3.37;;;;;;;;;;6309150;22;20153;-70
2022/11/23 03:25:29;;;;;;;7.77;3.13;;;;;;;;;;6309030;22;20153;-72
2022/11/23 03:27:55;;;;;;;10.73;3.73;;;;;;;;;;6309102;22;20217;-70
2022/11/23 03:30:21;;;;;;;9.13;3.87;;;;;;;;;;6308976;22;20192;-70
2022/11/23 03:32:47;;;;;;;9.70;4.00;;;;;;;;;;6309356;22;20153;-71
2022/11/23 03:35:13;;;;;;;11.40;3.57;;;;;;;;;;6281712;22;20546;-71
2022/11/23 03:37:39;;;;;;;10.13;3.97;;;;;;;;;;6309480;22;20611;-72
2022/11/23 03:40:05;;;;;;;10.13;3.20;;;;;;;;;;6309127;22;20233;-71
2022/11/23 03:42:31;;;;;;;10.23;3.63;;;;;;;;;;6309025;22;20175;-70
2022/11/23 03:44:56;;;;;;;13.90;3.67;;;;;;;;;;6309268;22;20646;-70
2022/11/23 03:47:22;;;;;;;9.37;3.20;;;;;;;;;;6308741;22;20219;-71
2022/11/23 03:49:48;;;;;;;15.23;3.43;;;;;;;;;;6308609;22;20202;-70
2022/11/23 03:52:14;;;;;;;8.53;2.60;;;;;;;;;;6309282;22;20193;-71
2022/11/23 03:54:40;;;;;;;13.43;3.10;;;;;;;;;;6308804;22;20171;-71
2022/11/23 03:57:06;;;;;;;12.70;3.10;;;;;;;;;;6309233;22;20615;-70
2022/11/23 03:59:32;;;;;;;16.73;3.60;;;;;;;;;;6309105;22;20250;-70
2022/11/23 04:01:58;;;;;;;9.17;3.13;;;;;;;;;;6309131;22;20153;-72
2022/11/23 04:04:24;;;;;;;11.87;3.17;;;;;;;;;;6308700;22;20199;-71
2022/11/23 04:06:50;;;;;;;10.23;3.33;;;;;;;;;;6308704;22;20202;-71
2022/11/23 04:09:16;;;;;;;11.90;3.13;;;;;;;;;;6308853;22;20183;-72
2022/11/23 04:11:42;;;;;;;10.83;2.83;;;;;;;;;;6281575;22;20153;-71
2022/11/23 04:14:08;;;;;;;13.67;3.27;;;;;;;;;;6309248;22;20149;-70
2022/11/23 04:16:34;;;;;;;11.33;3.90;;;;;;;;;;6308541;22;20492;-70
2022/11/23 04:19:00;;;;;;;9.60;2.97;;;;;;;;;;6309212;22;20148;-72
2022/11/23 04:21:26;;;;;;;12.57;3.33;;;;;;;;;;6308585;22;20158;-72
2022/11/23 04:23:52;;;;;;;13.27;3.30;;;;;;;;;;6308854;22;20156;-71
2022/11/23 04:26:18;;;;;;;12.13;3.83;;;;;;;;;;6309440;22;20489;-71
2022/11/23 04:28:44;;;;;;;14.53;3.93;;;;;;;;;;6308780;22;20176;-70
2022/11/23 04:31:10;;;;;;;11.00;3.73;;;;;;;;;;6308601;22;20145;-72
2022/11/23 04:33:35;;;;;;;11.87;3.67;;;;;;;;;;6308671;22;20155;-70
2022/11/23 04:36:01;;;;;;;11.73;3.37;;;;;;;;;;6281288;22;20187;-72
2022/11/23 04:38:27;;;;;;;14.50;3.40;;;;;;;;;;6309786;22;20164;-72
2022/11/23 04:40:53;;;;;;;18.97;3.60;;;;;;;;;;6308974;22;20145;-73
2022/11/23 04:43:19;;;;;;;16.47;3.40;;;;;;;;;;6309409;22;20193;-70
2022/11/23 04:45:45;;;;;;;17.10;4.13;;;;;;;;;;6308387;22;20145;-69
2022/11/23 04:48:11;;;;;;;14.73;3.23;;;;;;;;;;6308187;22;20184;-70
2022/11/23 04:50:37;;;;;;;15.87;3.57;;;;;;;;;;6308436;22;20492;-71
2022/11/23 04:53:04;;;;;;;15.67;3.20;;;;;;;;;;6308442;22;20641;-70
2022/11/23 04:55:30;;;;;;;11.40;3.37;;;;;;;;;;6308417;22;20183;-71
2022/11/23 04:57:56;;;;;;;13.87;3.63;;;;;;;;;;6280791;22;20177;-70
2022/11/23 05:00:22;;;;;;;11.87;3.07;;;;;;;;;;6308317;22;20159;-71
2022/11/23 05:02:48;;;;;;;13.70;3.50;;;;;;;;;;6308258;22;20493;-70
2022/11/23 05:05:14;;;;;;;20.70;3.87;;;;;;;;;;6308071;22;20202;-68
2022/11/23 05:07:40;;;;;;;18.20;3.83;;;;;;;;;;6307928;22;20626;-73
2022/11/23 05:10:07;;;;;;;14.07;3.10;;;;;;;;;;6307954;22;20251;-70
2022/11/23 05:12:33;;;;;;;14.90;3.27;;;;;;;;;;6308111;22;20496;-70
2022/11/23 05:14:58;;;;;;;17.77;3.53;;;;;;;;;;6280620;22;20152;-72
2022/11/23 05:17:24;;;;;;;15.43;3.80;;;;;;;;;;6280520;22;20683;-70
2022/11/23 05:19:50;;;;;;;14.17;3.50;;;;;;;;;;6308240;22;20203;-71
2022/11/23 05:22:16;;;;;;;9.77;3.10;;;;;;;;;;6308440;22;20198;-71
2022/11/23 05:24:42;;;;;;;11.93;3.13;;;;;;;;;;6280516;22;20594;-71
2022/11/23 05:27:08;;;;;;;13.30;3.37;;;;;;;;;;6308010;22;20175;-71
2022/11/23 05:29:34;;;;;;;12.37;3.50;;;;;;;;;;6307885;22;20175;-71
2022/11/23 05:32:00;;;;;;;16.60;3.27;;;;;;;;;;6307991;22;20156;-71
2022/11/23 05:34:26;;;;;;;9.40;3.60;;;;;;;;;;6308323;22;20224;-71
2022/11/23 05:36:52;;;;;;;15.20;4.00;;;;;;;;;;6307658;22;20168;-71
2022/11/23 05:39:18;;;;;;;17.77;4.17;;;;;;;;;;6307763;22;20494;-71
2022/11/23 05:41:44;;;;;;;14.07;3.90;;;;;;;;;;6280387;22;20606;-70
2022/11/23 05:44:10;;;;;;;15.50;4.40;;;;;;;;;;6307670;22;20148;-72
2022/11/23 05:46:36;;;;;;;12.30;3.30;;;;;;;;;;6307517;22;20188;-67
2022/11/23 05:49:02;;;;;;;11.97;3.37;;;;;;;;;;6307613;22;20184;-70
2022/11/23 05:51:28;;;;;;;12.60;3.30;;;;;;;;;;6307711;22;20488;-72
2022/11/23 05:53:56;;;;;;;11.97;3.20;;;;;;;;;;6308329;22;20155;-71
2022/11/23 05:56:21;;;;;;;16.63;4.03;;;;;;;;;;6307585;22;20619;-72
2022/11/23 05:58:47;;;;;;;10.57;2.97;;;;;;;;;;6307580;22;20172;-71
2022/11/23 06:01:13;;;;;;;13.73;3.97;;;;;;;;;;6307986;22;20172;-70
2022/11/23 06:03:39;;;;;;;10.13;2.80;;;;;;;;;;6307863;22;20520;-72
2022/11/23 06:06:05;;;;;;;11.33;3.07;;;;;;;;;;6307906;22;20168;-71
2022/11/23 06:08:31;;;;;;;13.20;3.47;;;;;;;;;;6307926;22;20238;-71
2022/11/23 06:11:00;;;;;;;9.67;2.80;;;;;;;;;;6280398;22;20148;-71
2022/11/23 06:13:26;;;;;;;18.30;3.37;;;;;;;;;;6307687;22;20149;-71
2022/11/23 06:15:52;;;;;;;12.50;3.30;;;;;;;;;;6280248;22;20594;-71
2022/11/23 06:18:18;;;;;;;12.20;3.37;;;;;;;;;;6307432;22;20169;-72
2022/11/23 06:20:44;;;;;;;12.97;3.07;;;;;;;;;;6280523;22;20156;-71
2022/11/23 06:23:10;;;;;;;10.57;3.53;;;;;;;;;;6307644;22;20234;-73
2022/11/23 06:25:37;;;;;;;14.03;3.17;;;;;;;;;;6280658;22;20582;-70
2022/11/23 06:28:04;;;;;;;14.57;3.67;;;;;;;;;;6308410;22;20168;-72
2022/11/23 06:30:30;;;;;;;9.90;3.77;;;;;;;;;;6307806;22;20172;-70
2022/11/23 06:32:56;;;;;;;9.47;3.47;;;;;;;;;;6308295;22;20151;-71
2022/11/23 06:35:22;;;;;;;18.47;4.77;;;;;;;;;;6308237;22;20493;-72
2022/11/23 06:37:49;;;;;;;12.90;5.43;;;;;;;;;;6308212;22;20164;-71
2022/11/23 06:40:15;;;;;;;21.13;6.27;;;;;;;;;;6308151;22;20496;-71
2022/11/23 06:42:41;;;;;;;21.70;5.37;;;;;;;;;;6307973;22;20167;-71
2022/11/23 06:45:07;;;;;;;14.20;5.13;;;;;;;;;;6308231;22;20152;-71
2022/11/23 06:47:33;;;;;;;14.43;5.73;;;;;;;;;;6307428;22;20313;-71
2022/11/23 06:49:59;;;;;;;16.47;6.17;;;;;;;;;;6307471;22;20200;-71
2022/11/23 06:52:25;;;;;;;19.80;5.20;;;;;;;;;;6307604;22;20145;-70
2022/11/23 06:54:51;;;;;;;15.33;4.73;;;;;;;;;;6308390;22;20149;-71
2022/11/23 06:57:17;;;;;;;19.30;5.67;;;;;;;;;;6309793;22;20200;-69
2022/11/23 06:59:44;;;;;;;21.07;5.53;;;;;;;;;;6309529;22;20167;-70
2022/11/23 07:02:10;;;;;;;19.80;6.00;;;;;;;;;;6309401;22;20163;-69
2022/11/23 07:04:36;;;;;;;16.23;6.13;;;;;;;;;;6309405;22;20157;-70
2022/11/23 07:07:02;;;;;;;18.27;5.70;;;;;;;;;;6307777;22;20207;-70
2022/11/23 07:09:28;;;;;;;22.33;5.40;;;;;;;;;;6309220;22;20172;-69
2022/11/23 07:11:54;;;;;;;17.07;4.53;;;;;;;;;;6309185;22;20148;-70
2022/11/23 07:14:20;;;;;;;11.97;4.10;;;;;;;;;;6309042;22;20522;-69
2022/11/23 07:16:46;;;;;;;14.23;4.30;;;;;;;;;;6308665;22;20165;-69
2022/11/23 07:19:12;;;;;;;14.80;3.80;;;;;;;;;;6307331;22;20263;-69
2022/11/23 07:21:38;;;;;;;12.87;4.27;;;;;;;;;;6309164;22;20152;-69
2022/11/23 07:24:04;;;;;;;13.60;4.13;;;;;;;;;;6307380;22;20221;-69
2022/11/23 07:26:30;;;;;;;12.30;3.73;;;;;;;;;;6307322;22;20266;-69
2022/11/23 07:28:56;;;;;;;12.60;3.77;;;;;;;;;;6308814;22;20172;-69
2022/11/23 07:31:22;;;;;;;13.37;3.20;;;;;;;;;;6308827;22;20155;-69
2022/11/23 07:33:48;;;;;;;12.30;3.50;;;;;;;;;;6308849;22;20197;-69
2022/11/23 07:36:14;;;;;;;8.43;2.90;;;;;;;;;;6308749;22;20168;-69
2022/11/23 07:38:40;;;;;;;12.57;3.33;;;;;;;;;;6307256;22;20160;-71
2022/11/23 07:41:06;;;;;;;11.70;3.10;;;;;;;;;;6308739;22;20647;-70
2022/11/23 07:43:32;;;;;;;11.40;3.50;;;;;;;;;;6308781;22;20179;-70
2022/11/23 07:45:58;;;;;;;10.63;3.27;;;;;;;;;;6309588;22;20614;-70
2022/11/23 07:48:24;;;;;;;9.97;2.80;;;;;;;;;;6308815;22;20645;-70
2022/11/23 07:50:54;;;;;;;10.33;3.07;;;;;;;;;;6307454;22;20162;-69
2022/11/23 07:53:20;;;;;;;14.60;3.23;;;;;;;;;;6308917;22;20148;-69
2022/11/23 07:55:46;;;;;;;11.17;3.00;;;;;;;;;;6306883;22;20152;-70
2022/11/23 07:58:12;;;;;;;14.10;3.37;;;;;;;;;;6307056;22;20156;-70
2022/11/23 08:00:38;;;;;;;11.77;3.37;;;;;;;;;;6307050;22;20156;-70
2022/11/23 08:03:04;;;;;;;10.47;3.23;;;;;;;;;;6308950;22;20159;-70
2022/11/23 08:05:34;;;;;;;10.07;3.10;;;;;;;;;;6308416;22;20174;-70
2022/11/23 08:08:01;;;;;;;12.73;4.13;;;;;;;;;;6310461;22;20168;-70
2022/11/23 08:10:32;;;;;;;8.50;3.30;;;;;;;;;;6306803;22;20176;-70
2022/11/23 08:12:59;;;;;;;13.43;3.63;;;;;;;;;;6308783;22;20148;-70
2022/11/23 08:15:27;;;;;;;11.83;3.83;;;;;;;;;;6308794;22;20148;-70
2022/11/23 08:17:59;;;;;;;11.90;4.13;;;;;;;;;;6309049;22;20221;-70
2022/11/23 08:20:27;;;;;;;14.33;4.73;;;;;;;;;;6308402;22;20223;-70
2022/11/23 08:22:56;;;;;;;14.07;4.77;;;;;;;;;;6306826;22;20262;-70
2022/11/23 08:25:22;;;;;;;12.10;4.80;;;;;;;;;;6308490;22;20556;-70
2022/11/23 08:27:53;;;;;;;11.97;4.30;;;;;;;;;;6308447;22;20172;-70
2022/11/23 08:30:20;;;;;;;10.80;3.77;;;;;;;;;;6307043;22;20210;-68
2022/11/23 08:32:46;;;;;;;12.13;3.93;;;;;;;;;;6308546;22;20148;-70
2022/11/23 08:35:11;;;;;;;9.07;3.07;;;;;;;;;;6308514;22;20587;-70
2022/11/23 08:37:37;;;;;;;7.73;2.27;;;;;;;;;;6308350;22;20623;-70
2022/11/23 08:40:03;;;;;;;10.03;2.93;;;;;;;;;;6308298;22;20149;-70
2022/11/23 08:42:29;;;;;;;8.47;3.00;;;;;;;;;;6309139;22;20157;-70
2022/11/23 08:44:58;;;;;;;10.53;3.23;;;;;;;;;;6308413;22;20222;-70
2022/11/23 08:47:24;;;;;;;9.93;3.00;;;;;;;;;;6306790;22;20176;-69
2022/11/23 08:49:50;;;;;;;14.33;4.13;;;;;;;;;;6306751;22;20184;-71
2022/11/23 08:52:16;;;;;;;6.80;3.60;;;;;;;;;;6308200;22;20155;-70
2022/11/23 08:54:42;;;;;;;11.97;3.73;;;;;;;;;;6306398;22;20191;-70
2022/11/23 08:57:08;;;;;;;9.73;3.23;;;;;;;;;;6306057;22;20184;-70
2022/11/23 08:59:34;;;;;;;10.03;3.33;;;;;;;;;;6308033;22;20152;-70
2022/11/23 09:02:00;;;;;;;12.43;3.53;;;;;;;;;;6308161;22;20160;-70
2022/11/23 09:04:29;;;;;;;8.73;3.30;;;;;;;;;;6308324;22;20149;-70
2022/11/23 09:06:55;;;;;;;11.70;3.30;;;;;;;;;;6308175;22;20179;-69
2022/11/23 09:09:21;;;;;;;13.53;3.60;;;;;;;;;;6306086;22;20212;-70
2022/11/23 09:11:47;;;;;;;12.23;3.30;;;;;;;;;;6307870;22;20599;-70
2022/11/23 09:14:13;;;;;;;8.70;3.00;;;;;;;;;;6306416;22;20156;-70
2022/11/23 09:16:39;;;;;;;8.33;2.97;;;;;;;;;;6306155;22;20176;-70
2022/11/23 09:19:07;;;;;;;11.20;3.70;;;;;;;;;;6306288;22;20167;-70
2022/11/23 09:21:34;;;;;;;10.73;3.17;;;;;;;;;;6308515;22;20232;-70
2022/11/23 09:24:00;;;;;;;10.80;3.00;;;;;;;;;;6306754;22;20164;-70
2022/11/23 09:26:26;;;;;;;7.37;3.07;;;;;;;;;;6308496;22;20179;-70
2022/11/23 09:28:52;;;;;;;12.03;2.97;;;;;;;;;;6307835;22;20561;-70
2022/11/23 09:31:18;;;;;;;7.03;2.90;;;;;;;;;;6308001;22;20148;-70
2022/11/23 09:33:44;;;;;;;12.43;3.53;;;;;;;;;;6308237;22;20463;-70
2022/11/23 09:36:10;;;;;;;13.20;3.50;;;;;;;;;;6306684;22;20179;-70
2022/11/23 09:38:36;;;;;;;14.20;3.77;;;;;;;;;;6306478;22;20160;-70
2022/11/23 09:41:21;;;;;;;10.57;3.73;;;;;;;;;;6308336;22;20149;-70
2022/11/23 09:43:54;;;;;;;10.50;3.93;;;;;;;;;;6308191;22;20148;-69
2022/11/23 09:46:39;;;;;;;8.73;3.23;;;;;;;;;;6306977;22;20180;-69
2022/11/23 09:49:19;;;;;;;12.00;3.67;;;;;;;;;;6307963;22;20183;-69
2022/11/23 09:51:45;;;;;;;10.23;3.50;;;;;;;;;;6306678;22;20193;-69
2022/11/23 09:54:11;;;;;;;9.87;3.57;;;;;;;;;;6306451;22;20160;-69
2022/11/23 09:56:38;;;;;;;14.80;4.73;;;;;;;;;;6306233;22;20185;-70
2022/11/23 09:59:23;;;;;;;18.47;4.90;;;;;;;;;;6306597;22;20188;-70
2022/11/23 10:01:49;;;;;;;13.23;3.57;;;;;;;;;;6306353;22;20166;-69
2022/11/23 10:04:17;;;;;;;15.10;4.00;;;;;;;;;;6307823;22;20251;-70
2022/11/23 10:06:43;;;;;;;12.30;3.83;;;;;;;;;;6306748;22;20260;-70
2022/11/23 10:09:18;;;;;;;18.07;3.93;;;;;;;;;;6306786;22;20205;-70
2022/11/23 10:11:56;;;;;;;9.37;3.47;;;;;;;;;;6317001;22;20145;-70
2022/11/23 10:14:32;;;;;;;17.23;4.07;;;;;;;;;;6316125;22;20219;-70
2022/11/23 10:16:58;;;;;;;11.80;3.60;;;;;;;;;;6316785;22;20182;-70
2022/11/23 10:19:43;;;;;;;11.50;3.40;;;;;;;;;;6311710;22;20247;-70
2022/11/23 10:22:14;;;;;;;10.97;3.80;;;;;;;;;;6309517;22;20179;-70
2022/11/23 10:24:43;;;;;;;11.50;3.43;;;;;;;;;;6308535;22;20148;-70
2022/11/23 10:27:29;;;;;;;14.70;4.40;;;;;;;;;;6307114;22;20180;-70
2022/11/23 10:29:55;;;;;;;15.93;4.47;;;;;;;;;;6309494;22;20164;-71
2022/11/23 10:32:38;;;;;;;14.27;4.70;;;;;;;;;;6311433;22;20484;-70
2022/11/23 10:35:10;;;;;;;10.70;3.50;;;;;;;;;;6309144;22;20156;-71
2022/11/23 10:37:38;;;;;;;17.83;3.93;;;;;;;;;;6310108;22;20193;-71
2022/11/23 10:40:04;;;;;;;7.27;2.87;;;;;;;;;;6310257;22;20149;-71
2022/11/23 10:42:31;;;;;;;11.13;3.47;;;;;;;;;;6309623;22;20210;-70
2022/11/23 10:44:59;;;;;;;9.33;3.23;;;;;;;;;;6309861;22;20232;-70
2022/11/23 10:47:33;;;;;;;11.23;3.37;;;;;;;;;;6307967;22;20200;-70
2022/11/23 10:49:59;;;;;;;10.23;3.37;;;;;;;;;;6310481;22;20190;-70
2022/11/23 10:52:27;;;;;;;11.90;3.00;;;;;;;;;;6309203;22;20586;-70
2022/11/23 10:54:55;;;;;;;8.20;2.70;;;;;;;;;;6308265;22;20206;-70
2022/11/23 10:57:27;;;;;;;12.37;3.67;;;;;;;;;;6308612;22;20184;-70
2022/11/23 11:00:02;;;;;;;8.23;2.70;;;;;;;;;;6311052;22;20566;-70
2022/11/23 11:02:29;;;;;;;15.57;3.33;;;;;;;;;;6309258;22;20235;-71
2022/11/23 11:05:13;;;;;;;10.03;2.43;;;;;;;;;;6309853;22;20179;-71
2022/11/23 11:07:39;;;;;;;9.60;3.77;;;;;;;;;;6319485;22;20633;-70
2022/11/23 11:10:05;;;;;;;11.20;3.70;;;;;;;;;;6310771;22;20172;-71
2022/11/23 11:12:33;;;;;;;19.10;3.70;;;;;;;;;;6308941;22;20236;-71
2022/11/23 11:15:01;;;;;;;10.87;3.43;;;;;;;;;;6311033;22;20459;-70
2022/11/23 11:17:32;;;;;;;11.53;2.73;;;;;;;;;;6308869;22;20693;-71
2022/11/23 11:19:58;;;;;;;12.13;2.60;;;;;;;;;;6308973;22;20159;-71
2022/11/23 11:22:34;;;;;;;10.43;2.80;;;;;;;;;;6309533;22;20149;-70
2022/11/23 11:25:01;;;;;;;8.63;2.80;;;;;;;;;;6309082;22;20240;-71
2022/11/23 11:27:29;;;;;;;12.03;3.23;;;;;;;;;;6308785;22;20172;-71
2022/11/23 11:29:59;;;;;;;12.23;3.30;;;;;;;;;;6309611;22;20173;-71
2022/11/23 11:32:31;;;;;;;8.73;3.37;;;;;;;;;;6308835;22;20155;-70
2022/11/23 11:35:03;;;;;;;10.77;2.63;;;;;;;;;;6307166;22;20592;-71
2022/11/23 11:37:34;;;;;;;12.27;2.80;;;;;;;;;;6306970;22;20173;-70
2022/11/23 11:40:09;;;;;;;14.00;3.00;;;;;;;;;;6307157;22;20160;-70
2022/11/23 11:42:41;;;;;;;11.20;3.10;;;;;;;;;;6306617;22;20187;-71
2022/11/23 11:45:12;;;;;;;7.13;2.90;;;;;;;;;;6308941;22;20154;-70
2022/11/23 11:47:41;;;;;;;7.23;2.07;;;;;;;;;;6308597;22;20517;-70
2022/11/23 11:50:19;;;;;;;5.93;2.50;;;;;;;;;;6306943;22;20187;-71
2022/11/23 11:52:46;;;;;;;8.47;2.47;;;;;;;;;;6309321;22;20554;-70
2022/11/23 11:55:17;;;;;;;10.40;3.20;;;;;;;;;;6308549;22;20156;-71
2022/11/23 11:58:06;;;;;;;7.63;2.60;;;;;;;;;;6306838;22;20199;-70
2022/11/23 12:00:34;;;;;;;7.30;2.70;;;;;;;;;;6316647;22;20533;-70
2022/11/23 12:03:03;;;;;;;7.43;2.60;;;;;;;;;;6306810;22;20152;-71
2022/11/23 12:05:46;;;;;;;8.00;2.73;;;;;;;;;;6308424;22;20155;-71
2022/11/23 12:08:14;;;;;;;8.00;2.60;;;;;;;;;;6308903;22;20140;-71
2022/11/23 12:10:48;;;;;;;11.47;3.10;;;;;;;;;;6306671;22;20180;-70
2022/11/23 12:13:19;;;;;;;7.27;2.10;;;;;;;;;;6306909;22;20148;-71
2022/11/23 12:15:47;;;;;;;7.70;2.60;;;;;;;;;;6306758;22;20191;-71
2022/11/23 12:18:32;;;;;;;11.57;2.90;;;;;;;;;;6306839;22;20167;-71
2022/11/23 12:21:17;;;;;;;12.73;3.07;;;;;;;;;;6308419;22;20153;-71
2022/11/23 12:23:53;;;;;;;7.63;2.40;;;;;;;;;;6306750;22;20170;-71
2022/11/23 12:26:31;;;;;;;12.07;3.50;;;;;;;;;;6306700;22;20305;-70
2022/11/23 12:29:04;;;;;;;5.87;2.40;;;;;;;;;;6306591;22;20207;-71
2022/11/23 12:31:42;;;;;;;6.63;2.40;;;;;;;;;;6308713;22;20172;-71
2022/11/23 12:34:31;;;;;;;9.47;2.43;;;;;;;;;;6306689;22;20144;-71
2022/11/23 12:37:04;;;;;;;4.83;2.20;;;;;;;;;;6306557;22;20168;-71
2022/11/23 12:39:49;;;;;;;8.33;2.60;;;;;;;;;;6306726;22;20156;-71
2022/11/23 12:42:26;;;;;;;7.00;2.50;;;;;;;;;;6308556;22;20140;-70
2022/11/23 12:45:10;;;;;;;5.13;2.10;;;;;;;;;;6308535;22;20149;-71
2022/11/23 12:47:36;;;;;;;7.73;2.43;;;;;;;;;;6306580;22;20634;-71
2022/11/23 12:50:09;;;;;;;8.27;2.60;;;;;;;;;;6308223;22;20172;-71
2022/11/23 12:52:35;;;;;;;6.03;2.63;;;;;;;;;;6308365;22;20504;-71
2022/11/23 12:55:18;;;;;;;7.23;2.93;;;;;;;;;;6308112;22;20153;-71
2022/11/23 12:57:48;;;;;;;8.20;2.70;;;;;;;;;;6307991;22;20188;-71
2022/11/23 13:00:16;;;;;;;5.73;2.03;;;;;;;;;;6309673;22;20318;-69
2022/11/23 13:02:52;;;;;;;8.30;2.20;;;;;;;;;;6308230;22;20149;-72
2022/11/23 13:05:27;;;;;;;7.43;2.10;;;;;;;;;;6309136;22;20132;-70
2022/11/23 13:07:56;;;;;;;8.43;2.40;;;;;;;;;;6308427;22;20139;-69
2022/11/23 13:10:38;;;;;;;5.40;2.20;;;;;;;;;;6308267;22;20180;-71
2022/11/23 13:13:24;;;;;;;7.33;2.10;;;;;;;;;;6280937;22;20152;-71
2022/11/23 13:15:59;;;;;;;9.07;2.50;;;;;;;;;;6280616;22;20535;-71
2022/11/23 13:18:37;;;;;;;9.33;2.30;;;;;;;;;;6308009;22;20144;-70
2022/11/23 13:21:22;;;;;;;5.83;2.00;;;;;;;;;;6308243;22;20160;-70
2022/11/23 13:23:48;;;;;;;6.70;2.30;;;;;;;;;;6280693;22;20243;-71
2022/11/23 13:26:17;;;;;;;7.30;2.53;;;;;;;;;;6307876;22;20579;-69
2022/11/23 13:28:43;;;;;;;6.63;2.20;;;;;;;;;;6307806;22;20144;-70
2022/11/23 13:31:15;;;;;;;9.90;2.37;;;;;;;;;;6307886;22;20165;-70
2022/11/23 13:33:45;;;;;;;8.40;1.90;;;;;;;;;;6307818;22;20153;-70
2022/11/23 13:36:12;;;;;;;7.17;2.20;;;;;;;;;;6307709;22;20575;-70
2022/11/23 13:38:40;;;;;;;4.53;2.57;;;;;;;;;;6308330;22;20145;-71
2022/11/23 13:41:24;;;;;;;10.50;2.80;;;;;;;;;;6307876;22;20168;-70
2022/11/23 13:43:51;;;;;;;6.13;2.47;;;;;;;;;;6280355;22;20168;-71
2022/11/23 13:46:27;;;;;;;5.63;2.10;;;;;;;;;;6307568;22;20191;-70
2022/11/23 13:48:54;;;;;;;5.30;2.17;;;;;;;;;;6280231;22;20207;-71
2022/11/23 13:51:22;;;;;;;6.07;2.00;;;;;;;;;;6307833;22;20202;-70
2022/11/23 13:53:54;;;;;;;5.47;2.03;;;;;;;;;;6307812;22;20148;-70
2022/11/23 13:56:30;;;;;;;7.43;2.60;;;;;;;;;;6307650;22;20152;-71
2022/11/23 13:59:19;;;;;;;5.10;2.10;;;;;;;;;;6280102;22;20160;-72
2022/11/23 14:02:04;;;;;;;4.70;2.20;;;;;;;;;;6279975;22;20196;-71
2022/11/23 14:04:31;;;;;;;9.40;2.83;;;;;;;;;;6307115;22;20198;-70
2022/11/23 14:07:05;;;;;;;9.87;2.60;;;;;;;;;;6280282;22;20240;-71
2022/11/23 14:09:48;;;;;;;6.37;2.33;;;;;;;;;;6279913;22;20191;-72
2022/11/23 14:12:21;;;;;;;7.37;2.73;;;;;;;;;;6281308;22;20144;-70
2022/11/23 14:14:47;;;;;;;8.80;3.33;;;;;;;;;;6280270;22;20194;-70
2022/11/23 14:17:19;;;;;;;8.97;3.60;;;;;;;;;;6280175;22;20526;-68
2022/11/23 14:20:00;;;;;;;10.53;2.30;;;;;;;;;;6307255;22;20175;-70
2022/11/23 14:22:44;;;;;;;11.93;2.70;;;;;;;;;;6280085;22;20176;-71
2022/11/23 14:25:10;;;;;;;7.13;2.60;;;;;;;;;;6280002;22;20164;-70
2022/11/23 14:27:55;;;;;;;7.47;2.73;;;;;;;;;;6307376;22;20531;-70
2022/11/23 14:30:21;;;;;;;8.20;2.63;;;;;;;;;;6307092;22;20188;-71
2022/11/23 14:32:53;;;;;;;5.50;2.40;;;;;;;;;;6307358;22;20155;-72
2022/11/23 14:35:52;;;;;;;4.23;1.93;;;;;;;;;;6307727;22;20141;-71
2022/11/23 14:38:28;;;;;;;7.43;2.47;;;;;;;;;;6239499;22;20179;-71
2022/11/23 14:41:04;;;;;;;7.80;2.53;;;;;;;;;;6307304;22;20168;-71
2022/11/23 14:43:30;;;;;;;5.90;2.57;;;;;;;;;;6307640;22;20151;-70
2022/11/23 14:46:00;;;;;;;9.80;3.63;;;;;;;;;;6307198;22;20588;-71